createdAt,value
2023-04-18T00:01:32.571Z,9.00
2023-04-18T00:06:33.441Z,9.20
2023-04-18T00:09:03.139Z,9.30
2023-04-18T00:11:31.284Z,9.40
2023-04-18T00:14:02.081Z,9.40
2023-04-18T00:16:33.923Z,9.50
2023-04-18T00:19:06.934Z,9.50
2023-04-18T00:21:38.860Z,9.50
2023-04-18T00:24:07.165Z,9.50
2023-04-18T00:26:36.581Z,9.40
2023-04-18T00:29:05.913Z,9.30
2023-04-18T00:31:44.536Z,9.30
2023-04-18T00:34:22.191Z,9.30
2023-04-18T00:36:51.481Z,9.20
2023-04-18T00:39:19.761Z,9.20
2023-04-18T00:41:50.780Z,9.20
2023-04-18T00:44:19.621Z,9.20
2023-04-18T00:46:46.801Z,9.20
2023-04-18T00:49:15.978Z,9.20
2023-04-18T00:51:52.271Z,9.10
2023-04-18T00:54:24.367Z,9.10
2023-04-18T00:56:53.136Z,9.10
2023-04-18T00:59:23.230Z,9.00
2023-04-18T01:01:52.368Z,9.00
2023-04-18T01:04:30.426Z,9.00
2023-04-18T01:07:02.775Z,8.90
2023-04-18T01:09:39.619Z,9.00
2023-04-18T01:12:10.324Z,8.90
2023-04-18T01:14:44.750Z,8.90
2023-04-18T01:17:14.298Z,8.90
2023-04-18T01:19:43.243Z,8.90
2023-04-18T01:22:18.143Z,8.90
2023-04-18T01:24:46.612Z,8.90
2023-04-18T01:27:14.581Z,8.90
2023-04-18T01:29:43.875Z,9.00
2023-04-18T01:32:17.871Z,9.00
2023-04-18T01:34:46.446Z,9.00
2023-04-18T01:37:16.148Z,9.00
2023-04-18T01:39:45.867Z,9.00
2023-04-18T01:42:15.516Z,9.00
2023-04-18T01:44:53.428Z,9.00
2023-04-18T01:47:30.366Z,9.10
2023-04-18T01:49:59.055Z,9.10
2023-04-18T01:52:28.235Z,9.10
2023-04-18T01:54:58.841Z,9.20
2023-04-18T01:57:27.196Z,9.20
2023-04-18T02:00:01.857Z,9.10
2023-04-18T02:02:32.678Z,9.10
2023-04-18T02:05:01.668Z,9.10
2023-04-18T02:07:37.876Z,9.10
2023-04-18T02:10:08.067Z,9.10
2023-04-18T02:12:38.687Z,9.20
2023-04-18T02:15:07.851Z,9.20
2023-04-18T02:17:37.081Z,9.30
2023-04-18T02:20:13.737Z,9.30
2023-04-18T02:22:42.643Z,9.30
2023-04-18T02:25:15.013Z,9.30
2023-04-18T02:27:44.962Z,9.40
2023-04-18T02:30:13.904Z,9.50
2023-04-18T02:32:44.956Z,9.40
2023-04-18T02:35:21.307Z,9.40
2023-04-18T02:38:09.764Z,9.40
2023-04-18T02:40:38.379Z,9.40
2023-04-18T02:43:09.615Z,9.50
2023-04-18T02:45:40.758Z,9.50
2023-04-18T02:48:10.139Z,9.50
2023-04-18T02:50:40.908Z,9.40
2023-04-18T02:53:13.830Z,9.50
2023-04-18T02:55:43.068Z,9.50
2023-04-18T02:58:12.197Z,9.50
2023-04-18T03:00:41.185Z,9.50
2023-04-18T03:03:18.877Z,9.50
2023-04-18T03:05:56.466Z,9.60
2023-04-18T03:08:24.925Z,9.60
2023-04-18T03:10:56.444Z,9.60
2023-04-18T03:13:28.482Z,9.60
2023-04-18T03:15:57.481Z,9.60
2023-04-18T03:18:26.957Z,9.60
2023-04-18T03:20:55.744Z,9.60
2023-04-18T03:23:24.201Z,9.60
2023-04-18T03:25:55.089Z,9.70
2023-04-18T03:28:29.001Z,9.70
2023-04-18T03:30:57.904Z,9.80
2023-04-18T03:33:28.304Z,9.80
2023-04-18T03:36:05.791Z,9.80
2023-04-18T03:38:34.355Z,9.80
2023-04-18T03:41:11.797Z,9.70
2023-04-18T03:43:42.324Z,9.70
2023-04-18T03:46:11.308Z,9.60
2023-04-18T03:48:39.899Z,9.60
2023-04-18T03:51:11.986Z,9.60
2023-04-18T03:53:40.869Z,9.60
2023-04-18T03:56:09.398Z,9.50
2023-04-18T03:58:36.568Z,9.50
2023-04-18T04:01:08.182Z,9.50
2023-04-18T04:03:37.897Z,9.60
2023-04-18T04:06:15.413Z,9.60
2023-04-18T04:08:46.979Z,9.60
2023-04-18T04:11:15.285Z,9.70
2023-04-18T04:13:43.766Z,9.60
2023-04-18T04:16:12.651Z,9.50
2023-04-18T04:18:42.360Z,9.50
2023-04-18T04:21:20.012Z,9.50
2023-04-18T04:23:48.858Z,9.50
2023-04-18T04:26:17.625Z,9.50
2023-04-18T04:28:46.955Z,9.50
2023-04-18T04:31:20.066Z,9.50
2023-04-18T04:33:48.401Z,9.60
2023-04-18T04:36:18.899Z,9.70
2023-04-18T04:38:49.376Z,9.90
2023-04-18T04:41:26.096Z,10.50
2023-04-18T04:43:54.995Z,10.80
2023-04-18T04:46:25.791Z,10.80
2023-04-18T04:48:55.076Z,10.90
2023-04-18T04:51:29.045Z,10.90
2023-04-18T04:53:57.975Z,10.90
2023-04-18T04:56:26.568Z,10.90
2023-04-18T04:58:59.659Z,10.90
2023-04-18T05:01:27.344Z,10.90
2023-04-18T05:03:57.216Z,11.00
2023-04-18T05:06:27.841Z,10.90
2023-04-18T05:08:58.425Z,10.90
2023-04-18T05:11:27.296Z,11.00
2023-04-18T05:13:54.460Z,11.20
2023-04-18T05:16:21.785Z,11.30
2023-04-18T05:18:55.763Z,11.40
2023-04-18T05:21:26.406Z,11.50
2023-04-18T05:23:56.369Z,11.60
2023-04-18T05:26:26.134Z,11.60
2023-04-18T05:28:56.216Z,11.80
2023-04-18T05:31:26.860Z,12.40
2023-04-18T05:33:55.508Z,13.10
2023-04-18T05:36:28.825Z,13.50
2023-04-18T05:38:58.903Z,13.70
2023-04-18T05:41:25.918Z,13.80
2023-04-18T05:44:04.892Z,14.00
2023-04-18T05:46:43.930Z,14.00
2023-04-18T05:49:11.203Z,14.00
2023-04-18T05:51:41.365Z,14.00
2023-04-18T05:54:18.845Z,13.80
2023-04-18T05:56:45.871Z,13.80
2023-04-18T05:59:18.939Z,13.80
2023-04-18T06:01:47.958Z,13.60
2023-04-18T06:04:22.785Z,13.60
2023-04-18T06:06:51.760Z,13.60
2023-04-18T06:09:20.249Z,13.50
2023-04-18T06:11:47.587Z,13.40
2023-04-18T06:14:17.191Z,13.40
2023-04-18T06:16:47.782Z,13.40
2023-04-18T06:19:16.684Z,13.50
2023-04-18T06:21:45.358Z,13.50
2023-04-18T06:24:18.462Z,13.60
2023-04-18T06:26:46.492Z,13.50
2023-04-18T06:29:13.667Z,13.50
2023-04-18T06:31:45.165Z,13.50
2023-04-18T06:34:14.904Z,13.60
2023-04-18T06:36:43.911Z,13.70
2023-04-18T06:39:17.714Z,13.80
2023-04-18T06:41:47.338Z,13.80
2023-04-18T06:44:16.210Z,13.90
2023-04-18T06:46:53.344Z,13.90
2023-04-18T06:49:26.460Z,13.90
2023-04-18T06:51:56.271Z,14.00
2023-04-18T06:54:32.869Z,14.10
2023-04-18T06:57:02.623Z,14.10
2023-04-18T06:59:33.809Z,14.10
2023-04-18T07:02:04.616Z,14.20
2023-04-18T07:04:32.188Z,14.30
2023-04-18T07:06:59.590Z,14.40
2023-04-18T07:09:29.801Z,14.50
2023-04-18T07:11:59.423Z,14.70
2023-04-18T07:14:29.318Z,14.80
2023-04-18T07:16:59.647Z,15.00
2023-04-18T07:19:29.493Z,15.10
2023-04-18T07:21:57.908Z,15.40
2023-04-18T07:24:26.980Z,15.50
2023-04-18T07:26:57.269Z,15.60
2023-04-18T07:29:25.760Z,15.60
2023-04-18T07:31:54.441Z,15.90
2023-04-18T07:34:23.961Z,16.00
2023-04-18T07:36:54.316Z,16.20
2023-04-18T07:39:23.001Z,16.50
2023-04-18T07:41:51.662Z,16.60
2023-04-18T07:44:19.111Z,16.80
2023-04-18T07:46:49.793Z,16.50
2023-04-18T07:49:18.025Z,16.40
2023-04-18T07:51:48.341Z,16.20
2023-04-18T07:54:26.296Z,16.30
2023-04-18T07:56:56.044Z,16.50
2023-04-18T07:59:26.321Z,16.70
2023-04-18T08:01:54.797Z,16.80
2023-04-18T08:04:21.946Z,16.90
2023-04-18T08:06:49.927Z,17.10
2023-04-18T08:09:21.344Z,16.80
2023-04-18T08:11:48.537Z,16.50
2023-04-18T08:14:17.202Z,16.50
2023-04-18T08:16:46.570Z,16.40
2023-04-18T08:19:16.343Z,16.40
2023-04-18T08:21:46.742Z,16.50
2023-04-18T08:24:16.403Z,16.40
2023-04-18T08:26:47.943Z,16.30
2023-04-18T08:29:17.449Z,16.40
2023-04-18T08:31:54.493Z,16.40
2023-04-18T08:34:25.077Z,16.40
2023-04-18T08:36:55.802Z,16.20
2023-04-18T08:39:28.110Z,16.10
2023-04-18T08:42:00.834Z,16.00
2023-04-18T08:44:30.500Z,15.80
2023-04-18T08:47:02.043Z,15.90
2023-04-18T08:49:31.227Z,15.90
2023-04-18T08:52:03.727Z,15.90
2023-04-18T08:54:34.716Z,15.80
2023-04-18T08:57:29.616Z,15.70
2023-04-18T09:00:02.331Z,15.80
2023-04-18T09:02:47.605Z,16.00
2023-04-18T09:05:22.327Z,16.20
2023-04-18T09:07:53.614Z,16.40
2023-04-18T09:10:35.053Z,16.70
2023-04-18T09:13:10.799Z,17.00
2023-04-18T09:15:40.901Z,17.30
2023-04-18T09:18:10.575Z,17.50
2023-04-18T09:20:42.903Z,17.60
2023-04-18T09:23:21.702Z,17.80
2023-04-18T09:25:52.516Z,18.10
2023-04-18T09:28:34.339Z,18.20
2023-04-18T09:31:20.553Z,18.30
2023-04-18T09:33:57.427Z,18.50
2023-04-18T09:36:38.686Z,18.60
2023-04-18T09:39:07.204Z,18.60
2023-04-18T09:41:34.701Z,18.70
2023-04-18T09:44:15.051Z,18.70
2023-04-18T09:46:47.082Z,18.80
2023-04-18T09:49:17.522Z,19.00
2023-04-18T09:51:47.538Z,18.90
2023-04-18T09:54:20.029Z,18.90
2023-04-18T09:56:51.840Z,18.60
2023-04-18T09:59:55.114Z,18.40
2023-04-18T10:02:30.673Z,18.20
2023-04-18T10:05:00.936Z,18.30
2023-04-18T10:07:38.838Z,18.30
2023-04-18T10:10:07.043Z,18.30
2023-04-18T10:12:41.223Z,18.20
2023-04-18T10:15:12.370Z,18.20
2023-04-18T10:18:05.248Z,18.10
2023-04-18T10:20:36.134Z,18.10
2023-04-18T10:23:40.269Z,18.10
2023-04-18T10:26:14.702Z,17.90
2023-04-18T10:29:03.707Z,17.80
2023-04-18T10:31:41.689Z,17.70
2023-04-18T10:34:20.430Z,17.50
2023-04-18T10:37:07.128Z,17.50
2023-04-18T10:40:06.811Z,17.70
2023-04-18T10:42:51.633Z,17.70
2023-04-18T10:45:27.180Z,17.80
2023-04-18T10:48:30.455Z,17.90
2023-04-18T10:51:17.180Z,18.00
2023-04-18T10:54:05.886Z,18.00
2023-04-18T10:56:34.213Z,18.00
2023-04-18T10:59:12.725Z,18.10
2023-04-18T11:01:54.441Z,18.30
2023-04-18T11:04:26.803Z,18.50
2023-04-18T11:07:04.455Z,18.60
2023-04-18T11:09:32.953Z,18.70
2023-04-18T11:12:11.639Z,18.70
2023-04-18T11:14:55.496Z,18.70
2023-04-18T11:17:25.697Z,18.80
2023-04-18T11:20:31.178Z,18.70
2023-04-18T11:23:01.187Z,18.60
2023-04-18T11:25:36.783Z,18.60
2023-04-18T11:28:14.132Z,18.60
2023-04-18T11:30:45.548Z,18.40
2023-04-18T11:33:16.219Z,18.30
2023-04-18T11:35:54.363Z,18.10
2023-04-18T11:38:31.611Z,17.90
2023-04-18T11:41:03.251Z,17.80
2023-04-18T11:43:36.068Z,17.70
2023-04-18T11:46:11.667Z,17.50
2023-04-18T11:48:42.421Z,17.30
2023-04-18T11:51:48.907Z,17.20
2023-04-18T11:54:41.408Z,17.20
2023-04-18T11:57:24.320Z,17.20
2023-04-18T11:59:56.421Z,17.30
2023-04-18T12:02:41.651Z,17.50
2023-04-18T12:05:11.133Z,17.60
2023-04-18T12:07:55.901Z,17.20
2023-04-18T12:10:28.374Z,16.50
2023-04-18T12:13:00.578Z,16.10
2023-04-18T12:15:32.163Z,14.30
2023-04-18T12:18:04.745Z,13.20
2023-04-18T12:20:42.698Z,13.10
2023-04-18T12:23:11.894Z,13.10
2023-04-18T12:25:41.321Z,13.20
2023-04-18T12:28:17.723Z,13.40
2023-04-18T12:30:53.691Z,13.60
2023-04-18T12:33:26.380Z,12.40
2023-04-18T12:35:58.179Z,11.80
2023-04-18T12:38:30.509Z,11.40
2023-04-18T12:40:58.764Z,12.10
2023-04-18T12:43:25.945Z,13.10
2023-04-18T12:45:53.111Z,14.20
2023-04-18T12:48:25.136Z,14.90
2023-04-18T12:50:53.983Z,15.20
2023-04-18T12:53:23.722Z,15.30
2023-04-18T12:55:52.556Z,15.30
2023-04-18T12:58:23.628Z,15.30
2023-04-18T13:00:55.578Z,15.40
2023-04-18T13:03:24.593Z,15.30
2023-04-18T13:05:58.705Z,15.10
2023-04-18T13:08:27.362Z,14.80
2023-04-18T13:10:58.805Z,14.70
2023-04-18T13:13:27.283Z,14.60
2023-04-18T13:15:56.766Z,14.60
2023-04-18T13:18:25.202Z,14.70
2023-04-18T13:21:01.929Z,14.90
2023-04-18T13:23:30.907Z,15.10
2023-04-18T13:25:59.004Z,15.30
2023-04-18T13:28:29.066Z,15.30
2023-04-18T13:30:59.806Z,15.20
2023-04-18T13:33:27.784Z,15.20
2023-04-18T13:35:56.643Z,15.10
2023-04-18T13:38:23.584Z,15.00
2023-04-18T13:41:04.377Z,14.90
2023-04-18T13:43:40.882Z,14.90
2023-04-18T13:46:14.383Z,14.70
2023-04-18T13:48:43.080Z,14.60
2023-04-18T13:51:11.466Z,14.60
2023-04-18T13:53:41.023Z,14.70
2023-04-18T13:56:12.018Z,14.60
2023-04-18T13:58:43.708Z,14.60
2023-04-18T14:01:14.749Z,14.50
2023-04-18T14:03:43.907Z,14.50
2023-04-18T14:06:15.861Z,14.40
2023-04-18T14:08:48.757Z,14.30
2023-04-18T14:11:19.172Z,14.20
2023-04-18T14:13:47.949Z,13.90
2023-04-18T14:16:16.502Z,13.80
2023-04-18T14:18:57.450Z,13.50
2023-04-18T14:21:32.164Z,13.40
2023-04-18T14:24:08.389Z,13.30
2023-04-18T14:26:39.037Z,13.30
2023-04-18T14:29:06.536Z,13.20
2023-04-18T14:31:35.897Z,13.00
2023-04-18T14:34:14.175Z,13.00
2023-04-18T14:36:45.633Z,12.90
2023-04-18T14:39:14.424Z,13.00
2023-04-18T14:41:41.682Z,13.10
2023-04-18T14:44:09.089Z,13.00
2023-04-18T14:46:38.528Z,13.00
2023-04-18T14:49:07.576Z,13.10
2023-04-18T14:51:43.630Z,13.00
2023-04-18T14:54:13.032Z,13.00
2023-04-18T14:56:41.361Z,13.10
2023-04-18T14:59:10.748Z,13.00
2023-04-18T15:01:38.964Z,13.00
2023-04-18T15:04:08.619Z,13.00
2023-04-18T15:06:38.533Z,12.90
2023-04-18T15:09:08.250Z,12.80
2023-04-18T15:11:38.098Z,12.80
2023-04-18T15:14:07.473Z,12.90
2023-04-18T15:16:39.469Z,12.90
2023-04-18T15:19:10.200Z,12.50
2023-04-18T15:21:47.311Z,12.30
2023-04-18T15:24:18.054Z,12.10
2023-04-18T15:26:56.825Z,12.00
2023-04-18T15:29:27.067Z,12.00
2023-04-18T15:31:57.672Z,11.90
2023-04-18T15:34:27.694Z,11.80
2023-04-18T15:36:54.694Z,11.90
2023-04-18T15:39:23.874Z,11.80
2023-04-18T15:41:57.940Z,11.90
2023-04-18T15:44:27.052Z,11.90
2023-04-18T15:46:56.999Z,11.90
2023-04-18T15:49:25.415Z,11.80
2023-04-18T15:51:53.134Z,11.80
2023-04-18T15:54:23.116Z,11.70
2023-04-18T15:56:51.702Z,11.70
2023-04-18T15:59:22.446Z,11.60
2023-04-18T16:02:00.031Z,11.60
2023-04-18T16:04:29.506Z,11.60
2023-04-18T16:06:58.379Z,11.60
2023-04-18T16:09:34.739Z,11.60
2023-04-18T16:12:05.059Z,11.60
2023-04-18T16:14:34.020Z,11.60
2023-04-18T16:17:03.238Z,11.70
2023-04-18T16:19:36.323Z,11.50
2023-04-18T16:22:07.688Z,11.40
2023-04-18T16:24:36.526Z,11.40
2023-04-18T16:27:07.121Z,11.40
2023-04-18T16:29:35.663Z,11.50
2023-04-18T16:32:10.151Z,11.40
2023-04-18T16:34:38.706Z,11.50
2023-04-18T16:37:07.388Z,11.40
2023-04-18T16:39:37.064Z,11.40
2023-04-18T16:42:05.514Z,11.40
2023-04-18T16:44:33.993Z,11.40
2023-04-18T16:47:04.512Z,11.30
2023-04-18T16:49:35.062Z,11.40
2023-04-18T16:52:12.615Z,11.30
2023-04-18T16:54:43.216Z,11.30
2023-04-18T16:59:58.182Z,11.20
2023-04-18T17:02:26.834Z,11.20
2023-04-18T17:04:55.477Z,11.20
2023-04-18T17:07:26.352Z,11.20
2023-04-18T17:09:55.923Z,11.20
2023-04-18T17:12:25.938Z,11.20
2023-04-18T17:14:54.602Z,11.10
2023-04-18T17:17:25.523Z,11.10
2023-04-18T17:20:01.786Z,11.10
2023-04-18T17:22:31.411Z,11.10
2023-04-18T17:25:01.891Z,11.10
2023-04-18T17:27:30.247Z,11.00
2023-04-18T17:29:58.839Z,10.90
2023-04-18T17:32:29.248Z,10.70
2023-04-18T17:34:57.391Z,10.70
2023-04-18T17:37:26.005Z,10.60
2023-04-18T17:39:58.854Z,10.60
2023-04-18T17:42:27.332Z,10.50
2023-04-18T17:45:04.543Z,10.50
2023-04-18T17:47:34.231Z,10.50
2023-04-18T17:50:13.068Z,10.40
2023-04-18T17:52:41.626Z,10.40
2023-04-18T17:55:10.840Z,10.40
2023-04-18T17:57:46.860Z,10.40
2023-04-18T18:00:14.831Z,10.40
2023-04-18T18:02:53.073Z,10.40
2023-04-18T18:05:23.507Z,10.40
2023-04-18T18:07:51.937Z,10.40
2023-04-18T18:10:22.043Z,10.40
2023-04-18T18:12:50.851Z,10.40
2023-04-18T18:15:29.117Z,10.40
2023-04-18T18:17:58.578Z,10.40
2023-04-18T18:20:27.878Z,10.50
2023-04-18T18:22:59.779Z,10.50
2023-04-18T18:25:30.292Z,10.50
2023-04-18T18:27:59.992Z,10.40
2023-04-18T18:30:29.568Z,10.30
2023-04-18T18:33:01.414Z,10.30
2023-04-18T18:35:30.357Z,10.40
2023-04-18T18:38:00.269Z,10.40
2023-04-18T18:40:28.535Z,10.40
2023-04-18T18:43:06.055Z,10.50
2023-04-18T18:45:41.979Z,10.50
2023-04-18T18:48:13.634Z,10.50
2023-04-18T18:50:44.047Z,10.50
2023-04-18T18:53:13.769Z,10.40
2023-04-18T18:55:42.480Z,10.40
2023-04-18T18:58:12.758Z,10.30
2023-04-18T19:00:43.737Z,10.30
2023-04-18T19:03:10.896Z,10.40
2023-04-18T19:05:40.497Z,10.40
2023-04-18T19:08:07.912Z,9.30
2023-04-18T19:10:42.662Z,7.70
2023-04-18T19:13:21.545Z,6.30
2023-04-18T19:15:51.154Z,5.20
2023-04-18T19:18:28.980Z,4.50
2023-04-18T19:20:59.466Z,4.10
2023-04-18T19:23:28.509Z,3.80
2023-04-18T19:25:57.265Z,3.60
2023-04-18T19:28:28.077Z,3.50
2023-04-18T19:31:05.253Z,3.50
2023-04-18T19:33:34.870Z,3.50
2023-04-18T19:36:03.800Z,3.50
2023-04-18T19:38:33.418Z,3.50
2023-04-18T19:41:07.001Z,3.80
2023-04-18T19:43:39.713Z,4.40
2023-04-18T19:46:08.897Z,5.30
2023-04-18T19:48:45.988Z,6.00
2023-04-18T19:51:13.616Z,6.60
2023-04-18T19:53:43.144Z,7.00
2023-04-18T19:56:19.937Z,7.40
2023-04-18T19:58:49.952Z,7.70
2023-04-18T20:01:20.589Z,7.90
2023-04-18T20:03:57.681Z,8.00
2023-04-18T20:06:27.118Z,8.20
2023-04-18T20:08:57.616Z,8.40
2023-04-18T20:11:26.244Z,8.40
2023-04-18T20:13:57.140Z,7.00
2023-04-18T20:16:27.892Z,5.70
2023-04-18T20:19:02.694Z,4.80
2023-04-18T20:21:30.288Z,4.10
2023-04-18T20:24:08.073Z,3.70
2023-04-18T20:26:40.051Z,3.50
2023-04-18T20:29:08.561Z,3.40
2023-04-18T20:31:48.416Z,3.40
2023-04-18T20:34:25.064Z,3.30
2023-04-18T20:36:56.216Z,3.30
2023-04-18T20:39:25.375Z,3.30
2023-04-18T20:41:56.905Z,3.40
2023-04-18T20:44:29.828Z,3.40
2023-04-18T20:46:58.273Z,3.70
2023-04-18T20:49:26.899Z,4.40
2023-04-18T20:51:57.604Z,5.10
2023-04-18T20:54:27.651Z,5.80
2023-04-18T20:56:57.774Z,6.20
2023-04-18T20:59:26.159Z,6.50
2023-04-18T21:01:54.794Z,6.80
2023-04-18T21:04:26.659Z,7.00
2023-04-18T21:06:53.985Z,7.20
2023-04-18T21:09:21.311Z,7.40
2023-04-18T21:11:59.438Z,7.70
2023-04-18T21:14:27.501Z,7.90
2023-04-18T21:16:58.032Z,8.00
2023-04-18T21:19:26.703Z,8.10
2023-04-18T21:21:54.320Z,8.20
2023-04-18T21:24:21.475Z,8.30
2023-04-18T21:26:49.615Z,8.30
2023-04-18T21:29:17.865Z,8.40
2023-04-18T21:31:49.687Z,8.50
2023-04-18T21:34:18.122Z,8.60
2023-04-18T21:36:49.058Z,8.60
2023-04-18T21:39:19.440Z,8.70
2023-04-18T21:41:47.783Z,8.70
2023-04-18T21:44:19.099Z,8.70
2023-04-18T21:46:47.772Z,8.60
2023-04-18T21:49:17.243Z,8.70
2023-04-18T21:51:45.741Z,8.80
2023-04-18T21:54:25.717Z,8.90
2023-04-18T21:56:53.105Z,8.90
2023-04-18T21:59:30.090Z,8.90
2023-04-18T22:02:00.273Z,8.90
2023-04-18T22:04:37.062Z,8.90
2023-04-18T22:07:05.145Z,9.00
2023-04-18T22:09:49.295Z,9.00
2023-04-18T22:12:19.153Z,9.10
2023-04-18T22:14:49.858Z,9.10
2023-04-18T22:17:19.819Z,9.10
2023-04-18T22:19:50.259Z,9.10
2023-04-18T22:22:21.532Z,9.10
2023-04-18T22:24:51.992Z,9.20
2023-04-18T22:27:21.531Z,9.20
2023-04-18T22:29:48.482Z,9.20
2023-04-18T22:32:26.188Z,9.30
2023-04-18T22:34:54.875Z,9.20
2023-04-18T22:37:21.924Z,9.20
2023-04-18T22:39:52.740Z,9.20
2023-04-18T22:42:21.105Z,9.20
2023-04-18T22:44:51.882Z,9.20
2023-04-18T22:47:25.629Z,9.20
2023-04-18T22:49:54.534Z,9.20
2023-04-18T22:52:26.125Z,9.20
2023-04-18T22:54:54.220Z,9.20
2023-04-18T22:57:27.000Z,9.20
2023-04-18T22:59:57.316Z,9.20
2023-04-18T23:02:29.413Z,9.10
2023-04-18T23:04:59.150Z,9.10
2023-04-18T23:07:27.264Z,8.60
2023-04-18T23:09:54.662Z,7.00
2023-04-18T23:12:24.258Z,5.60
2023-04-18T23:14:56.153Z,4.60
2023-04-18T23:17:25.487Z,3.90
2023-04-18T23:20:02.017Z,4.40
2023-04-18T23:22:32.146Z,5.60
2023-04-18T23:25:02.962Z,6.30
2023-04-18T23:27:32.525Z,6.80
2023-04-18T23:30:01.093Z,7.30
2023-04-18T23:32:29.511Z,7.60
2023-04-18T23:34:57.790Z,7.80
2023-04-18T23:37:29.014Z,8.00
2023-04-18T23:39:59.309Z,8.20
2023-04-18T23:42:30.232Z,8.40
2023-04-18T23:45:01.422Z,8.60
2023-04-18T23:47:28.852Z,8.70
2023-04-18T23:49:56.302Z,8.80
2023-04-18T23:52:25.750Z,9.00
2023-04-18T23:54:55.899Z,9.10
2023-04-18T23:57:23.382Z,9.10
2023-04-18T23:59:52.082Z,9.20
